Time;durP1;ratioP1;P1;durP2;ratioP2;P2;SDS_P1;SDS_P2;PMS_P1;PMS_P2;Temp;Humidity;BMP_temperature;BMP_pressure;BME280_temperature;BME280_humidity;BME280_pressure;Samples;Min_cycle;Max_cycle;Signal;HPM_P1;HPM_P2
2022/08/22 00:00:53;;;;;;;16.03;4.13;;;;;;;23.19;100.00;101487.56;5031240;28;20057;-49
2022/08/22 00:03:28;;;;;;;15.63;3.63;;;;;;;23.10;100.00;101489.16;5033205;28;20049;-50
2022/08/22 00:06:08;;;;;;;10.53;3.13;;;;;;;23.12;100.00;101487.00;5028485;28;20086;-47
2022/08/22 00:08:40;;;;;;;21.80;3.70;;;;;;;23.10;100.00;101489.16;5031734;28;20060;-50
2022/08/22 00:11:47;;;;;;;15.83;3.50;;;;;;;23.17;100.00;101479.63;5030711;28;20030;-50
2022/08/22 00:14:23;;;;;;;8.70;3.57;;;;;;;23.17;100.00;101489.75;5031170;28;20034;-52
2022/08/22 00:16:56;;;;;;;8.02;2.63;;;;;;;23.25;100.00;101483.81;5032375;28;20034;-45
2022/08/22 00:19:49;;;;;;;12.70;3.30;;;;;;;23.23;100.00;101488.69;5031295;28;20038;-46
2022/08/22 00:22:51;;;;;;;14.47;3.47;;;;;;;23.20;100.00;101483.75;5032341;28;20105;-46
2022/08/22 00:25:54;;;;;;;13.53;4.00;;;;;;;23.03;100.00;101483.94;5033178;28;20026;-47
2022/08/22 00:28:33;;;;;;;10.43;3.33;;;;;;;23.32;100.00;101484.41;5001731;28;20039;-47
2022/08/22 00:31:23;;;;;;;11.80;3.03;;;;;;;23.15;100.00;101491.91;5033704;28;20030;-46
2022/08/22 00:33:55;;;;;;;12.70;3.20;;;;;;;23.41;100.00;101484.72;5026872;28;20042;-47
2022/08/22 00:36:34;;;;;;;11.10;3.60;;;;;;;23.42;100.00;101480.06;5033030;28;20053;-48
2022/08/22 00:39:11;;;;;;;10.77;3.87;;;;;;;23.43;100.00;101482.53;5028180;28;20033;-49
2022/08/22 00:42:07;;;;;;;13.87;4.03;;;;;;;23.42;100.00;101485.50;5033428;28;20038;-50
2022/08/22 00:44:39;;;;;;;10.73;3.20;;;;;;;23.41;100.00;101492.06;5035141;28;20046;-50
2022/08/22 00:47:20;;;;;;;11.80;3.50;;;;;;;23.45;100.00;101484.97;5032635;28;20038;-50
2022/08/22 00:50:11;;;;;;;15.80;2.97;;;;;;;23.44;100.00;101494.25;5032796;28;20030;-51
2022/08/22 00:53:14;;;;;;;10.03;3.10;;;;;;;23.41;100.00;101492.91;5034427;28;20029;-52
2022/08/22 00:56:19;;;;;;;11.10;3.00;;;;;;;23.17;100.00;101504.19;5033994;28;20121;-47
2022/08/22 00:58:54;;;;;;;11.83;3.77;;;;;;;23.08;100.00;101496.78;5035594;28;20049;-48
2022/08/22 01:01:29;;;;;;;10.73;3.63;;;;;;;23.32;100.00;101498.03;5036406;28;20021;-52
2022/08/22 01:04:23;;;;;;;13.30;3.57;;;;;;;23.09;100.00;101498.44;5031881;28;20054;-51
2022/08/22 01:07:10;;;;;;;13.23;3.40;;;;;;;23.01;100.00;101505.22;5031606;28;20030;-46
2022/08/22 01:09:58;;;;;;;5.95;2.80;;;;;;;23.16;100.00;101501.75;5034941;28;20040;-49
2022/08/22 01:13:02;;;;;;;13.13;3.20;;;;;;;23.23;100.00;101494.13;5030910;28;20101;-46
2022/08/22 01:15:34;;;;;;;6.53;2.60;;;;;;;23.26;100.00;101504.53;5034758;28;20101;-47
2022/08/22 01:18:22;;;;;;;12.60;3.23;;;;;;;23.27;100.00;101499.91;5019304;28;20033;-48
2022/08/22 01:20:56;;;;;;;15.43;3.27;;;;;;;23.05;100.00;101498.94;5032796;28;20034;-49
2022/08/22 01:23:40;;;;;;;9.63;2.90;;;;;;;23.27;100.00;101500.72;5035373;28;20045;-47
2022/08/22 01:26:37;;;;;;;10.13;2.87;;;;;;;23.41;100.00;101494.78;5036617;28;20037;-45
2022/08/22 01:29:38;;;;;;;13.67;2.93;;;;;;;23.30;100.00;101499.38;5033476;28;20038;-46
2022/08/22 01:32:41;;;;;;;9.50;2.93;;;;;;;23.38;100.00;101501.59;5036302;28;20088;-48
2022/08/22 01:35:23;;;;;;;6.30;2.60;;;;;;;23.32;100.00;101503.50;5037772;28;20042;-47
2022/08/22 01:38:11;;;;;;;11.93;3.17;;;;;;;23.18;100.00;101496.84;5037976;28;20069;-49
2022/08/22 01:41:11;;;;;;;11.93;3.20;;;;;;;23.08;100.00;101491.34;5029828;28;20038;-46
2022/08/22 01:44:07;;;;;;;9.90;3.27;;;;;;;23.05;100.00;101492.69;5031608;28;20105;-50
2022/08/22 01:46:37;;;;;;;15.40;3.13;;;;;;;22.97;100.00;101485.81;5032831;28;20060;-47
2022/08/22 01:49:13;;;;;;;13.47;3.07;;;;;;;23.01;100.00;101486.13;5037004;28;20997;-47
2022/08/22 01:52:03;;;;;;;;;;;;;;;22.95;100.00;101482.53;5033344;28;20033;-46
2022/08/22 01:54:53;;;;;;;11.47;2.80;;;;;;;22.97;100.00;101479.56;5031802;28;19918;-47
2022/08/22 01:57:21;;;;;;;15.23;3.13;;;;;;;22.92;100.00;101481.13;5035804;28;20041;-48
2022/08/22 01:59:51;;;;;;;15.13;3.53;;;;;;;22.89;100.00;101478.13;5032187;28;20033;-46
2022/08/22 02:02:50;;;;;;;15.53;3.13;;;;;;;22.86;100.00;101479.47;5032820;28;20037;-48
2022/08/22 02:05:15;;;;;;;16.77;4.20;;;;;;;22.86;100.00;101478.66;5032815;28;20026;-48
2022/08/22 02:07:53;;;;;;;9.53;3.43;;;;;;;22.79;100.00;101484.34;5026129;28;20037;-46
2022/08/22 02:10:47;;;;;;;17.47;4.37;;;;;;;22.97;100.00;101479.56;5030834;28;20068;-48
2022/08/22 02:13:18;;;;;;;14.80;4.93;;;;;;;23.02;100.00;101485.84;5031163;28;20042;-51
2022/08/22 02:15:59;;;;;;;11.67;4.00;;;;;;;22.74;100.00;101481.59;5031652;28;20034;-48
2022/08/22 02:18:40;;;;;;;14.10;4.03;;;;;;;22.69;100.00;101481.53;5030420;28;20048;-48
2022/08/22 02:21:20;;;;;;;11.60;3.57;;;;;;;22.55;100.00;101490.16;5030801;28;20041;-48
2022/08/22 02:23:57;;;;;;;14.40;4.50;;;;;;;22.76;100.00;101480.22;5029986;28;20038;-52
2022/08/22 02:26:45;;;;;;;12.03;3.27;;;;;;;22.74;100.00;101481.59;5031025;28;20030;-50
2022/08/22 02:29:16;;;;;;;11.40;3.57;;;;;;;22.77;100.00;101476.41;5031362;28;20040;-50
2022/08/22 02:31:48;;;;;;;17.00;3.93;;;;;;;22.53;100.00;101475.16;5036009;28;20041;-47
2022/08/22 02:34:23;;;;;;;12.40;3.70;;;;;;;22.55;100.00;101479.28;5031938;28;20061;-54
2022/08/22 02:37:05;;;;;;;9.43;3.23;;;;;;;22.52;100.00;101476.22;5034945;28;20048;-49
2022/08/22 02:39:37;;;;;;;16.13;3.97;;;;;;;22.67;100.00;101464.63;5031498;28;20041;-52
2022/08/22 02:42:25;;;;;;;13.87;4.20;;;;;;;22.75;100.00;101477.78;5030502;28;20038;-51
2022/08/22 02:45:20;;;;;;;8.60;2.90;;;;;;;22.43;100.00;101471.25;5035605;28;20026;-52
2022/08/22 02:48:09;;;;;;;13.40;3.80;;;;;;;22.51;100.00;101471.88;5031278;28;20038;-52
2022/08/22 02:51:05;;;;;;;15.37;3.60;;;;;;;22.48;100.00;101474.03;5020832;28;20026;-50
2022/08/22 02:54:06;;;;;;;11.43;3.93;;;;;;;22.41;100.00;101478.84;5028873;28;20049;-53
2022/08/22 02:56:39;;;;;;;15.00;4.10;;;;;;;22.51;100.00;101471.88;5028479;28;20068;-50
2022/08/22 02:59:22;;;;;;;14.53;4.20;;;;;;;22.55;100.00;101473.81;5029825;28;20053;-50
2022/08/22 03:01:48;;;;;;;13.00;3.87;;;;;;;22.62;100.00;101468.16;5028438;28;20038;-47
2022/08/22 03:04:29;;;;;;;12.00;3.50;;;;;;;22.62;100.00;101470.88;5031738;28;20057;-46
2022/08/22 03:07:15;;;;;;;14.07;3.33;;;;;;;22.62;100.00;101468.16;5033512;28;20045;-48
2022/08/22 03:09:50;;;;;;;10.33;3.87;;;;;;;22.59;100.00;101458.59;5029026;28;20052;-51
2022/08/22 03:12:31;;;;;;;7.60;3.30;;;;;;;22.41;100.00;101457.06;5033137;28;20030;-50
2022/08/22 03:15:22;;;;;;;14.50;4.03;;;;;;;22.45;100.00;101458.19;5032515;28;20065;-46
2022/08/22 03:17:54;;;;;;;14.30;3.63;;;;;;;22.45;100.00;101458.19;5021726;28;20044;-48
2022/08/22 03:20:44;;;;;;;16.90;4.20;;;;;;;22.41;100.00;101454.34;5035264;28;20042;-48
2022/08/22 03:23:16;;;;;;;11.37;3.40;;;;;;;22.34;100.00;101459.16;5027349;28;20042;-49
2022/08/22 03:26:07;;;;;;;10.50;3.17;;;;;;;22.33;100.00;101455.63;5029528;28;20042;-50
2022/08/22 03:29:00;;;;;;;10.60;3.57;;;;;;;22.34;100.00;101454.56;5029215;28;20041;-47
2022/08/22 03:31:27;;;;;;;11.37;3.87;;;;;;;22.32;100.00;101455.88;5024591;28;20069;-49
2022/08/22 03:34:21;;;;;;;18.23;4.70;;;;;;;22.31;100.00;101448.78;5032031;28;20065;-48
2022/08/22 03:37:05;;;;;;;16.20;4.83;;;;;;;22.30;100.00;101455.31;5031132;28;20030;-53
2022/08/22 03:39:40;;;;;;;24.30;7.40;;;;;;;22.23;100.00;101446.56;5032622;28;20046;-46
2022/08/22 03:42:31;;;;;;;19.43;8.30;;;;;;;22.25;100.00;101447.91;5032972;28;20037;-51
2022/08/22 03:45:25;;;;;;;18.53;6.80;;;;;;;22.15;100.00;101445.13;5031895;28;20056;-49
2022/08/22 03:48:12;;;;;;;13.10;6.00;;;;;;;22.19;100.00;101441.63;5030744;28;20050;-49
2022/08/22 03:50:55;;;;;;;27.13;11.27;;;;;;;22.17;100.00;101440.22;5030221;28;20038;-47
2022/08/22 03:54:02;;;;;;;48.93;24.40;;;;;;;22.15;100.00;101439.69;5030025;28;20064;-49
2022/08/22 03:56:30;;;;;;;57.73;27.40;;;;;;;22.15;100.00;101448.69;5030388;28;20030;-48
2022/08/22 03:59:12;;;;;;;24.43;10.90;;;;;;;22.07;100.00;101449.13;5030482;28;20038;-45
2022/08/22 04:01:55;;;;;;;19.43;8.00;;;;;;;22.03;100.00;101445.28;5031226;28;20038;-52
2022/08/22 04:05:00;;;;;;;21.03;10.07;;;;;;;22.05;100.00;101445.84;5031281;28;20117;-49
2022/08/22 04:07:41;;;;;;;36.70;13.60;;;;;;;22.00;100.00;101443.09;4983857;28;20069;-51
2022/08/22 04:10:31;;;;;;;23.13;8.50;;;;;;;22.04;100.00;101446.94;4983945;28;20069;-49
2022/08/22 04:13:15;;;;;;;43.07;19.47;;;;;;;22.02;100.00;101438.19;5017996;28;20102;-54
2022/08/22 04:15:47;;;;;;;23.67;9.57;;;;;;;22.00;100.00;101438.44;5030972;28;20065;-53
2022/08/22 04:18:34;;;;;;;40.03;16.67;;;;;;;21.96;100.00;101439.25;5032164;28;20033;-49
2022/08/22 04:21:06;;;;;;;;;;;;;;;21.99;100.00;101436.00;5030969;28;20030;-51
2022/08/22 04:23:54;;;;;;;19.27;6.63;;;;;;;21.94;100.00;101439.47;5030040;28;19921;-52
2022/08/22 04:26:22;;;;;;;23.83;7.97;;;;;;;21.96;100.00;101444.69;5032947;28;20023;-50
2022/08/22 04:29:01;;;;;;;44.10;17.57;;;;;;;22.00;100.00;101449.34;5029582;28;20041;-53
2022/08/22 04:31:35;;;;;;;16.70;6.30;;;;;;;22.00;100.00;101454.78;5032784;28;20026;-49
2022/08/22 04:34:19;;;;;;;20.13;8.77;;;;;;;22.01;100.00;101459.16;5030493;28;20096;-50
2022/08/22 04:36:56;;;;;;;29.63;8.53;;;;;;;21.96;100.00;101450.94;5029129;28;20033;-51
2022/08/22 04:39:33;;;;;;;20.97;6.63;;;;;;;22.05;100.00;101454.84;5033927;28;20106;-48
2022/08/22 04:42:05;;;;;;;20.40;8.10;;;;;;;22.11;100.00;101452.97;5031319;28;20033;-50
2022/08/22 04:44:52;;;;;;;19.57;6.33;;;;;;;22.09;100.00;101459.78;5031652;28;20046;-49
2022/08/22 04:47:40;;;;;;;17.63;5.75;;;;;;;22.09;100.00;101457.06;5032531;28;20033;-47
2022/08/22 04:50:49;;;;;;;16.37;6.27;;;;;;;22.08;100.00;101458.94;5031894;28;20041;-47
2022/08/22 04:53:39;;;;;;;25.47;4.73;;;;;;;22.06;100.00;101452.94;5005276;28;20034;-50
2022/08/22 04:56:25;;;;;;;61.67;23.73;;;;;;;22.06;100.00;101459.22;5031188;28;20033;-51
2022/08/22 04:58:58;;;;;;;27.90;11.97;;;;;;;22.05;100.00;101470.34;5029376;28;20046;-50
2022/08/22 05:01:32;;;;;;;17.10;5.40;;;;;;;22.08;100.00;101471.75;5021748;28;20036;-54
2022/08/22 05:04:09;;;;;;;17.00;6.47;;;;;;;22.12;100.00;101476.41;5031064;28;20042;-47
2022/08/22 05:06:45;;;;;;;14.83;6.23;;;;;;;22.12;100.00;101473.69;5031307;28;20030;-49
2022/08/22 05:09:14;;;;;;;18.70;5.03;;;;;;;22.08;100.00;101469.84;5032069;28;20040;-52
2022/08/22 05:11:41;;;;;;;13.63;4.53;;;;;;;22.08;100.00;101467.13;5029877;28;20034;-51
2022/08/22 05:14:42;;;;;;;16.10;4.73;;;;;;;22.10;100.00;101464.94;5031613;28;20030;-50
2022/08/22 05:17:12;;;;;;;11.00;5.07;;;;;;;22.11;100.00;101463.88;5017878;28;20038;-48
2022/08/22 05:19:43;;;;;;;10.23;4.83;;;;;;;22.13;100.00;101467.16;5030250;28;20057;-50
2022/08/22 05:22:17;;;;;;;15.20;6.40;;;;;;;22.16;100.00;101469.38;5031633;28;20054;-46
2022/08/22 05:24:48;;;;;;;18.80;5.10;;;;;;;22.16;100.00;101471.28;5034056;28;20026;-51
2022/08/22 05:27:33;;;;;;;16.63;5.53;;;;;;;22.20;100.00;101470.50;5034211;28;20026;-49
2022/08/22 05:30:14;;;;;;;18.80;5.53;;;;;;;22.23;100.00;101471.88;5034413;28;20025;-50
2022/08/22 05:32:53;;;;;;;17.10;5.13;;;;;;;22.23;100.00;101480.03;5031390;28;20057;-46
2022/08/22 05:35:31;;;;;;;19.97;5.53;;;;;;;22.24;100.00;101487.13;5035666;28;20080;-48
2022/08/22 05:37:57;;;;;;;14.00;5.10;;;;;;;22.31;100.00;101493.22;5033930;28;20064;-50
2022/08/22 05:40:26;;;;;;;15.38;5.07;;;;;;;22.35;100.00;101496.22;5041235;28;20034;-48
2022/08/22 05:42:55;;;;;;;17.93;5.10;;;;;;;22.32;100.00;101494.84;5032087;28;20110;-48
2022/08/22 05:45:22;;;;;;;16.80;6.20;;;;;;;22.44;100.00;101496.56;5034864;28;20038;-46
2022/08/22 05:47:54;;;;;;;15.40;4.87;;;;;;;22.40;100.00;101493.56;5031046;28;20130;-47
2022/08/22 05:50:33;;;;;;;14.30;5.23;;;;;;;22.42;100.00;101502.31;5031918;28;20041;-48
2022/08/22 05:53:10;;;;;;;17.77;5.30;;;;;;;22.48;100.00;101495.84;5032687;28;20034;-50
2022/08/22 05:56:33;;;;;;;15.63;5.53;;;;;;;22.50;100.00;101495.59;5034043;28;20057;-47
2022/08/22 05:59:11;;;;;;;15.40;5.60;;;;;;;22.57;100.00;101492.63;4959303;29;20032;-50
2022/08/22 06:01:59;;;;;;;14.33;5.87;;;;;;;22.66;100.00;101491.06;4962145;29;20043;-50
2022/08/22 06:05:12;;;;;;;20.13;6.17;;;;;;;22.63;100.00;101499.78;5013761;28;20046;-47
2022/08/22 06:07:45;;;;;;;16.50;5.30;;;;;;;22.70;100.00;101499.53;5019482;28;20045;-51
2022/08/22 06:10:19;;;;;;;23.83;6.30;;;;;;;22.75;100.00;101505.84;5033558;28;20032;-47
2022/08/22 06:13:11;;;;;;;16.00;5.33;;;;;;;22.87;100.00;101513.03;5033707;28;20056;-51
2022/08/22 06:15:45;;;;;;;20.67;5.00;;;;;;;22.93;100.00;101509.25;5028201;28;20050;-47
2022/08/22 06:18:15;;;;;;;14.37;5.57;;;;;;;22.83;100.00;101511.88;5032334;28;20038;-48
2022/08/22 06:20:44;;;;;;;19.63;5.37;;;;;;;23.29;100.00;101514.13;5030456;28;20038;-48
2022/08/22 06:23:16;;;;;;;14.73;5.60;;;;;;;23.38;100.00;101511.72;5033266;28;20038;-50
2022/08/22 06:25:46;;;;;;;19.13;5.33;;;;;;;23.40;100.00;101518.53;5021328;28;20114;-48
2022/08/22 06:28:19;;;;;;;14.47;5.30;;;;;;;23.37;100.00;101520.97;5033402;28;20057;-50
2022/08/22 06:30:47;;;;;;;14.93;5.80;;;;;;;23.21;100.00;101515.41;5036726;28;20026;-48
2022/08/22 06:33:22;;;;;;;16.13;5.80;;;;;;;23.22;100.00;101517.03;5033674;28;20053;-47
2022/08/22 06:38:51;;;;;;;21.13;6.47;;;;;;;23.26;100.00;101520.91;5033365;28;20109;-50
2022/08/22 06:41:21;;;;;;;15.73;6.03;;;;;;;23.36;100.00;101520.16;5033411;28;20097;-53
2022/08/22 06:43:51;;;;;;;14.53;5.93;;;;;;;23.51;100.00;101522.13;5032250;28;20029;-46
2022/08/22 06:46:18;;;;;;;17.97;5.60;;;;;;;23.45;100.00;101529.47;5033034;28;20030;-47
2022/08/22 06:48:46;;;;;;;16.50;5.30;;;;;;;23.58;100.00;101527.34;5033066;28;20080;-50
2022/08/22 06:51:16;;;;;;;15.57;6.00;;;;;;;23.65;100.00;101530.66;5032794;28;20026;-53
2022/08/22 06:53:46;;;;;;;13.73;5.67;;;;;;;23.82;100.00;101527.72;5034668;28;20049;-51
2022/08/22 06:56:20;;;;;;;17.57;6.30;;;;;;;23.86;100.00;101536.16;5033726;28;20030;-52
2022/08/22 06:58:49;;;;;;;17.80;5.30;;;;;;;23.89;100.00;101533.72;5033824;28;20053;-53
2022/08/22 07:01:21;;;;;;;13.17;4.57;;;;;;;23.99;100.00;101530.19;5031380;28;20026;-46
2022/08/22 07:03:51;;;;;;;22.40;6.07;;;;;;;24.08;100.00;101536.00;5032603;28;20069;-52
2022/08/22 07:06:28;;;;;;;21.03;5.70;;;;;;;24.15;100.00;101533.81;5032476;28;20097;-47
2022/08/22 07:08:56;;;;;;;12.30;5.33;;;;;;;24.31;100.00;101539.31;5032441;28;20034;-53
2022/08/22 07:11:26;;;;;;;25.40;6.13;;;;;;;24.42;100.00;101540.94;5033414;28;20093;-49
2022/08/22 07:13:58;;;;;;;14.63;5.30;;;;;;;24.58;100.00;101544.53;5032375;28;20030;-50
2022/08/22 07:16:40;;;;;;;20.47;10.03;;;;;;;24.65;100.00;101551.63;5032314;28;20034;-53
2022/08/22 07:19:07;;;;;;;15.93;5.50;;;;;;;24.76;100.00;101545.06;5031027;28;20045;-49
2022/08/22 07:21:44;;;;;;;18.87;5.20;;;;;;;24.79;100.00;101546.44;5031647;28;20052;-50
2022/08/22 07:24:16;;;;;;;15.67;6.10;;;;;;;24.86;100.00;101536.88;5032333;28;20042;-51
2022/08/22 07:27:07;;;;;;;17.47;5.23;;;;;;;25.03;100.00;101535.75;5031222;28;20042;-48
2022/08/22 07:29:51;;;;;;;16.30;5.50;;;;;;;25.12;100.00;101536.00;5031637;28;20034;-52
2022/08/22 07:32:27;;;;;;;11.00;4.60;;;;;;;24.97;100.00;101536.84;5031734;28;20044;-52
2022/08/22 07:35:14;;;;;;;21.92;7.10;;;;;;;25.00;100.00;101528.09;5029208;28;20057;-52
2022/08/22 07:38:04;;;;;;;25.25;6.80;;;;;;;25.16;100.00;101534.38;5030927;28;20073;-52
2022/08/22 07:40:58;;;;;;;10.77;5.13;;;;;;;25.26;100.00;101528.84;5032710;28;20026;-51
2022/08/22 07:43:52;;;;;;;21.37;5.10;;;;;;;25.22;100.00;101519.56;5032423;28;20039;-53
2022/08/22 07:46:29;;;;;;;19.37;6.30;;;;;;;25.41;100.00;101522.50;5032717;28;20141;-51
2022/08/22 07:49:02;;;;;;;18.77;6.90;;;;;;;25.40;100.00;101518.13;5027833;28;20038;-50
2022/08/22 07:51:41;;;;;;;19.53;6.87;;;;;;;25.37;100.00;101518.69;5026073;28;20026;-51
2022/08/22 07:54:11;;;;;;;17.30;6.10;;;;;;;25.32;100.00;101524.97;5029975;28;20034;-48
2022/08/22 07:56:43;;;;;;;19.27;6.90;;;;;;;25.18;100.00;101519.28;5027455;28;20038;-51
2022/08/22 07:59:15;;;;;;;19.50;6.93;;;;;;;25.02;100.00;101521.25;5032086;28;20038;-49
2022/08/22 08:01:55;;;;;;;16.77;6.73;;;;;;;25.16;100.00;101517.94;5031469;28;20113;-52
2022/08/22 08:04:27;;;;;;;17.73;7.33;;;;;;;25.11;100.00;101507.00;5032623;28;20041;-51
2022/08/22 08:06:56;;;;;;;17.87;5.90;;;;;;;25.17;100.00;101501.22;5033400;28;20033;-53
2022/08/22 08:09:25;;;;;;;14.73;6.10;;;;;;;25.22;100.00;101508.59;5034380;28;20029;-49
2022/08/22 08:11:52;;;;;;;16.03;6.93;;;;;;;25.25;100.00;101507.22;5030520;28;20033;-48
2022/08/22 08:14:20;;;;;;;14.57;6.13;;;;;;;24.99;100.00;101510.03;5033972;28;20026;-47
2022/08/22 08:16:59;;;;;;;13.00;5.10;;;;;;;25.26;100.00;101506.94;5033264;28;20044;-51
2022/08/22 08:19:27;;;;;;;14.20;6.03;;;;;;;25.44;100.00;101497.28;5031153;28;20041;-47
2022/08/22 08:21:55;;;;;;;18.13;6.40;;;;;;;25.42;100.00;101501.44;5028672;28;20060;-50
2022/08/22 08:24:27;;;;;;;14.10;6.13;;;;;;;25.40;100.00;101498.16;5028554;28;20038;-48
2022/08/22 08:29:57;;;;;;;15.43;5.43;;;;;;;25.73;100.00;101491.16;5028403;28;20105;-46
2022/08/22 08:32:28;;;;;;;16.97;5.73;;;;;;;25.81;100.00;101500.69;5031156;28;20026;-48
2022/08/22 08:34:55;;;;;;;18.63;6.13;;;;;;;25.81;100.00;101495.22;5030628;28;20046;-49
2022/08/22 08:37:39;;;;;;;21.58;5.90;;;;;;;26.04;100.00;101487.38;5029821;28;20052;-50
2022/08/22 08:40:19;;;;;;;16.00;5.30;;;;;;;26.08;100.00;101502.19;5028337;28;20037;-50
2022/08/22 08:46:06;;;;;;;19.10;6.00;;;;;;;26.41;100.00;101494.28;5033609;28;20093;-48
2022/08/22 08:48:54;;;;;;;23.63;5.60;;;;;;;26.47;100.00;101498.59;5031800;28;20049;-49
2022/08/22 08:51:53;;;;;;;19.47;7.07;;;;;;;26.46;100.00;101493.41;5030552;28;20033;-53
2022/08/22 08:54:36;;;;;;;19.47;6.50;;;;;;;26.66;100.00;101489.66;5030119;28;20061;-50
2022/08/22 08:57:18;;;;;;;16.37;5.97;;;;;;;26.85;100.00;101497.19;5032006;28;20051;-48
2022/08/22 09:00:10;;;;;;;15.97;5.37;;;;;;;27.10;100.00;101498.81;5016489;28;20041;-48
2022/08/22 09:02:42;;;;;;;23.23;5.60;;;;;;;27.20;100.00;101498.72;5032705;28;20052;-51
2022/08/22 09:05:39;;;;;;;17.37;5.90;;;;;;;27.44;100.00;101497.88;5031842;28;20042;-48
2022/08/22 09:08:32;;;;;;;19.57;5.23;;;;;;;27.68;100.00;101490.72;5031104;28;20038;-50
2022/08/22 09:11:19;;;;;;;12.93;5.20;;;;;;;28.00;100.00;101492.72;5032803;28;20121;-52
2022/08/22 09:13:59;;;;;;;10.82;4.57;;;;;;;28.37;100.00;101501.22;5031551;28;20101;-52
2022/08/22 09:16:45;;;;;;;9.07;4.13;;;;;;;28.81;100.00;101498.28;5034440;28;20048;-51
2022/08/22 09:19:42;;;;;;;15.65;5.18;;;;;;;29.29;100.00;101497.88;5030862;28;20050;-52
2022/08/22 09:22:16;;;;;;;12.52;4.07;;;;;;;30.03;100.00;101498.78;5036972;28;20037;-52
2022/08/22 09:25:06;;;;;;;10.13;3.10;;;;;;;30.52;100.00;101498.13;5033769;28;20030;-52
2022/08/22 09:27:50;;;;;;;10.90;2.78;;;;;;;30.83;100.00;101491.81;5033361;28;20097;-52
2022/08/22 09:30:21;;;;;;;14.85;3.75;;;;;;;31.24;100.00;101494.56;5032818;28;20033;-54
2022/08/22 09:32:47;;;;;;;9.35;2.50;;;;;;;31.78;91.91;101493.53;5031841;28;20027;-52
2022/08/22 09:35:44;;;;;;;15.95;3.20;;;;;;;32.09;86.21;101487.84;5017844;28;20042;-51
2022/08/22 09:38:09;;;;;;;;;;;;;;;32.15;83.06;101496.75;5033871;28;20038;-54
2022/08/22 09:40:43;;;;;;;12.70;3.30;;;;;;;32.18;82.30;101490.59;5034042;28;19914;-53
2022/08/22 09:43:16;;;;;;;8.32;2.40;;;;;;;31.92;80.47;101496.13;5032504;28;20129;-50
2022/08/22 09:46:04;;;;;;;7.22;2.40;;;;;;;31.72;84.43;101498.38;5035408;28;20060;-51
2022/08/22 09:48:55;;;;;;;9.95;2.42;;;;;;;31.92;79.52;101487.84;5034116;28;20097;-49
2022/08/22 09:51:43;;;;;;;8.48;2.70;;;;;;;32.11;76.52;101493.84;5036664;28;20046;-52
2022/08/22 09:54:16;;;;;;;8.73;2.60;;;;;;;32.26;75.25;101494.44;5035114;28;20025;-50
2022/08/22 09:56:59;;;;;;;9.30;2.45;;;;;;;32.43;73.12;101488.13;5034157;28;20042;-53
2022/08/22 09:59:48;;;;;;;9.90;2.53;;;;;;;32.80;71.05;101498.72;5032565;28;20036;-53
2022/08/22 10:02:52;;;;;;;8.15;2.10;;;;;;;32.94;71.33;101491.03;5033904;28;20105;-49
2022/08/22 10:05:29;;;;;;;14.13;2.50;;;;;;;33.60;66.42;101488.84;4977073;28;20073;-49
2022/08/22 10:08:32;;;;;;;9.40;2.55;;;;;;;34.29;63.67;101483.84;5030635;28;20090;-49
2022/08/22 10:11:08;;;;;;;8.00;2.17;;;;;;;35.36;59.36;101491.66;5030962;28;20053;-52
2022/08/22 10:13:49;;;;;;;11.25;3.10;;;;;;;36.44;54.10;101491.91;5032989;28;20042;-55
2022/08/22 10:16:46;;;;;;;8.75;2.95;;;;;;;36.89;50.79;101491.84;5030411;28;20038;-48
2022/08/22 10:19:34;;;;;;;10.50;3.70;;;;;;;36.68;47.49;101492.97;5033654;28;20053;-51
2022/08/22 10:22:09;;;;;;;8.88;2.38;;;;;;;36.29;49.19;101493.53;5018668;28;20041;-47
2022/08/22 10:25:06;;;;;;;8.93;2.95;;;;;;;37.27;46.65;101493.13;5035395;28;20042;-52
2022/08/22 10:27:51;;;;;;;12.75;2.80;;;;;;;37.71;44.42;101489.28;5032730;28;20060;-49
2022/08/22 10:30:21;;;;;;;8.07;2.45;;;;;;;37.98;42.24;101485.84;5034407;28;20049;-52
2022/08/22 10:32:59;;;;;;;5.75;1.98;;;;;;;38.73;40.47;101488.34;5037976;28;20052;-48
2022/08/22 10:35:33;;;;;;;11.43;2.15;;;;;;;38.63;40.06;101487.00;5037926;28;20049;-50
2022/08/22 10:38:08;;;;;;;7.45;1.92;;;;;;;39.23;39.36;101481.91;5041042;28;20033;-53
2022/08/22 10:40:40;;;;;;;8.55;2.38;;;;;;;39.43;38.24;101479.78;5035173;28;20037;-53
2022/08/22 10:43:20;;;;;;;11.18;2.67;;;;;;;39.96;37.57;101489.22;5036069;28;20037;-52
2022/08/22 10:45:53;;;;;;;10.85;3.10;;;;;;;40.48;36.39;101485.72;5017674;28;20030;-52
2022/08/22 10:48:29;;;;;;;7.88;2.78;;;;;;;40.74;35.87;101483.94;5034198;28;20040;-51
2022/08/22 10:51:09;;;;;;;10.68;2.80;;;;;;;40.91;35.08;101480.44;5037847;28;20053;-48
2022/08/22 10:54:16;;;;;;;8.00;2.08;;;;;;;40.55;36.30;101477.38;5043483;28;20037;-50
2022/08/22 10:57:15;;;;;;;10.00;2.45;;;;;;;41.34;33.91;101481.91;5037294;28;20029;-54
2022/08/22 11:00:32;;;;;;;5.65;1.75;;;;;;;41.79;33.99;101476.88;5038906;28;20034;-50
2022/08/22 11:03:12;;;;;;;6.47;1.90;;;;;;;42.47;31.32;101474.56;4995402;28;20073;-48
2022/08/22 11:05:44;;;;;;;7.80;2.22;;;;;;;42.07;31.48;101472.53;5040238;28;20052;-52
2022/08/22 11:08:20;;;;;;;12.43;2.10;;;;;;;42.53;31.26;101473.72;5037084;28;20049;-51
2022/08/22 11:10:54;;;;;;;9.68;2.08;;;;;;;40.90;31.90;101470.44;5037053;28;20052;-49
2022/08/22 11:13:39;;;;;;;10.10;2.05;;;;;;;39.97;32.10;101472.03;5036335;28;20052;-47
2022/08/22 11:16:11;;;;;;;10.98;2.17;;;;;;;39.64;31.68;101470.03;5032928;28;20076;-48
2022/08/22 11:19:17;;;;;;;6.43;2.00;;;;;;;39.09;32.61;101468.53;5032454;28;20034;-52
2022/08/22 11:22:05;;;;;;;9.82;2.45;;;;;;;38.49;34.52;101456.03;5030836;28;20044;-53
2022/08/22 11:25:12;;;;;;;6.72;1.98;;;;;;;38.22;35.02;101464.34;5036076;28;20109;-50
2022/08/22 11:27:44;;;;;;;13.82;2.53;;;;;;;37.58;35.73;101454.38;5036007;28;20038;-49
2022/08/22 11:30:22;;;;;;;11.27;1.83;;;;;;;37.55;36.07;101443.94;5038341;28;20056;-50
2022/08/22 11:32:57;;;;;;;10.30;2.63;;;;;;;37.53;36.48;101441.50;5036951;28;20049;-49
2022/08/22 11:35:25;;;;;;;9.02;2.15;;;;;;;37.00;37.92;101448.34;5035559;28;20109;-53
2022/08/22 11:38:23;;;;;;;9.50;2.80;;;;;;;36.90;38.31;101436.91;5042066;28;20041;-47
2022/08/22 11:41:11;;;;;;;7.38;2.20;;;;;;;37.08;38.30;101437.34;5037194;28;20030;-49
2022/08/22 11:43:57;;;;;;;8.48;2.17;;;;;;;37.36;38.60;101441.91;5036955;28;20041;-49
2022/08/22 11:46:35;;;;;;;8.93;2.38;;;;;;;37.19;37.42;101437.56;5034747;28;20100;-50
2022/08/22 11:49:30;;;;;;;7.45;2.15;;;;;;;37.11;37.36;101442.19;5039635;28;20079;-50
2022/08/22 11:52:06;;;;;;;6.82;2.00;;;;;;;36.69;37.89;101438.84;5031999;28;20048;-49
2022/08/22 11:54:51;;;;;;;10.30;1.92;;;;;;;36.76;37.90;101438.19;5036279;28;20093;-49
2022/08/22 11:57:29;;;;;;;8.13;2.05;;;;;;;36.67;37.03;101435.59;5030427;28;20106;-51
2022/08/22 12:00:17;;;;;;;5.90;1.98;;;;;;;36.71;36.20;101436.50;5031337;28;20042;-51
2022/08/22 12:03:16;;;;;;;8.13;2.15;;;;;;;36.79;37.83;101423.53;5035197;28;20096;-48
2022/08/22 12:05:45;;;;;;;7.45;3.00;;;;;;;36.87;37.56;101427.28;5038273;28;20102;-50
2022/08/22 12:08:28;;;;;;;10.18;2.88;;;;;;;36.51;38.66;101423.66;5034361;28;20101;-51
2022/08/22 12:11:07;;;;;;;6.78;2.38;;;;;;;36.60;38.64;101421.50;5033386;28;20032;-46
2022/08/22 12:13:51;;;;;;;10.82;2.03;;;;;;;36.31;39.23;101426.34;5038171;28;20034;-49
2022/08/22 12:16:32;;;;;;;12.63;2.72;;;;;;;36.27;38.09;101422.69;5035337;28;20044;-55
2022/08/22 12:19:27;;;;;;;14.95;2.58;;;;;;;36.09;38.26;101425.81;5036132;28;20036;-47
2022/08/22 12:22:28;;;;;;;11.20;2.45;;;;;;;35.41;40.56;101421.91;5032124;28;20037;-49
2022/08/22 12:25:16;;;;;;;10.85;3.83;;;;;;;35.42;40.72;101423.53;5037467;28;20033;-46